Terminal Aerodrome Forecast
Issued by NWS Omaha/Valley, NE

Home | Current Version | Previous Version | Text Only | Print | Product List | Glossary Off
Versions: 1 2 3 4 5 6 7 8 9 10 11 12 13 14 15 16 17 18 19 20 21 22 23 24

345
FTUS43 KOAX 262321
TAFOFK
TAF
KOFK 262321Z 2700/2724 35007KT P6SM FEW250
     FM271000 04004KT P6SM VCTS BKN100CB
     FM271200 04004KT P6SM SHRA VCTS OVC050CB
     FM271800 01008KT P6SM OVC045=

USA.gov is the U.S. government's official web portal to all federal, state and local government web resources and services.